sensor_id;sensor_type;location;lat;lon;timestamp;P1;durP1;ratioP1;P2;durP2;ratioP2
25988;SDS011;13778;48.236;9.894;2024-01-15T00:00:35;31.23;;;13.80;;
25988;SDS011;13778;48.236;9.894;2024-01-15T00:03:25;27.25;;;13.48;;
25988;SDS011;13778;48.236;9.894;2024-01-15T00:06:17;31.87;;;14.03;;
25988;SDS011;13778;48.236;9.894;2024-01-15T00:09:08;29.45;;;12.95;;
25988;SDS011;13778;48.236;9.894;2024-01-15T00:11:59;21.53;;;10.97;;
25988;SDS011;13778;48.236;9.894;2024-01-15T00:14:50;30.02;;;13.70;;
25988;SDS011;13778;48.236;9.894;2024-01-15T00:17:41;26.92;;;13.73;;
25988;SDS011;13778;48.236;9.894;2024-01-15T00:20:31;30.65;;;14.18;;
25988;SDS011;13778;48.236;9.894;2024-01-15T00:23:23;28.80;;;13.52;;
25988;SDS011;13778;48.236;9.894;2024-01-15T00:26:13;27.73;;;15.18;;
25988;SDS011;13778;48.236;9.894;2024-01-15T00:29:04;27.88;;;14.95;;
25988;SDS011;13778;48.236;9.894;2024-01-15T00:31:56;28.77;;;12.63;;
25988;SDS011;13778;48.236;9.894;2024-01-15T00:34:47;33.65;;;15.60;;
25988;SDS011;13778;48.236;9.894;2024-01-15T00:37:37;32.78;;;14.73;;
25988;SDS011;13778;48.236;9.894;2024-01-15T00:40:29;30.52;;;14.80;;
25988;SDS011;13778;48.236;9.894;2024-01-15T00:43:19;35.50;;;16.42;;
25988;SDS011;13778;48.236;9.894;2024-01-15T00:46:10;29.83;;;14.05;;
25988;SDS011;13778;48.236;9.894;2024-01-15T00:49:00;34.50;;;16.25;;
25988;SDS011;13778;48.236;9.894;2024-01-15T00:51:52;38.72;;;16.10;;
25988;SDS011;13778;48.236;9.894;2024-01-15T00:54:43;31.30;;;15.32;;
25988;SDS011;13778;48.236;9.894;2024-01-15T00:57:34;27.92;;;11.40;;
25988;SDS011;13778;48.236;9.894;2024-01-15T01:00:25;30.20;;;13.20;;
25988;SDS011;13778;48.236;9.894;2024-01-15T01:03:16;37.23;;;15.63;;
25988;SDS011;13778;48.236;9.894;2024-01-15T01:06:06;28.80;;;12.93;;
25988;SDS011;13778;48.236;9.894;2024-01-15T01:08:57;32.78;;;15.18;;
25988;SDS011;13778;48.236;9.894;2024-01-15T01:11:47;35.03;;;14.43;;
25988;SDS011;13778;48.236;9.894;2024-01-15T01:14:39;29.23;;;13.18;;
25988;SDS011;13778;48.236;9.894;2024-01-15T01:17:30;32.30;;;14.32;;
25988;SDS011;13778;48.236;9.894;2024-01-15T01:20:20;34.00;;;14.32;;
25988;SDS011;13778;48.236;9.894;2024-01-15T01:23:11;28.10;;;14.02;;
25988;SDS011;13778;48.236;9.894;2024-01-15T01:26:01;32.28;;;14.10;;
25988;SDS011;13778;48.236;9.894;2024-01-15T01:28:52;23.50;;;12.13;;
25988;SDS011;13778;48.236;9.894;2024-01-15T01:31:44;30.77;;;14.18;;
25988;SDS011;13778;48.236;9.894;2024-01-15T01:34:39;32.38;;;14.82;;
25988;SDS011;13778;48.236;9.894;2024-01-15T01:37:30;30.67;;;14.98;;
25988;SDS011;13778;48.236;9.894;2024-01-15T01:40:20;32.60;;;16.00;;
25988;SDS011;13778;48.236;9.894;2024-01-15T01:43:11;32.75;;;14.32;;
25988;SDS011;13778;48.236;9.894;2024-01-15T01:46:01;29.65;;;13.57;;
25988;SDS011;13778;48.236;9.894;2024-01-15T01:48:53;30.47;;;14.30;;
25988;SDS011;13778;48.236;9.894;2024-01-15T01:51:44;25.77;;;14.02;;
25988;SDS011;13778;48.236;9.894;2024-01-15T01:54:35;30.30;;;14.63;;
25988;SDS011;13778;48.236;9.894;2024-01-15T01:57:25;33.92;;;15.15;;
25988;SDS011;13778;48.236;9.894;2024-01-15T02:00:16;26.20;;;13.70;;
25988;SDS011;13778;48.236;9.894;2024-01-15T02:03:07;32.30;;;13.48;;
25988;SDS011;13778;48.236;9.894;2024-01-15T02:06:00;31.40;;;13.65;;
25988;SDS011;13778;48.236;9.894;2024-01-15T02:08:50;24.17;;;12.95;;
25988;SDS011;13778;48.236;9.894;2024-01-15T02:11:41;22.52;;;10.05;;
25988;SDS011;13778;48.236;9.894;2024-01-15T02:14:32;30.30;;;12.63;;
25988;SDS011;13778;48.236;9.894;2024-01-15T02:17:22;25.52;;;12.82;;
25988;SDS011;13778;48.236;9.894;2024-01-15T02:20:13;23.33;;;11.70;;
25988;SDS011;13778;48.236;9.894;2024-01-15T02:23:07;27.38;;;12.23;;
25988;SDS011;13778;48.236;9.894;2024-01-15T02:25:58;28.33;;;12.35;;
25988;SDS011;13778;48.236;9.894;2024-01-15T02:28:48;22.15;;;11.38;;
25988;SDS011;13778;48.236;9.894;2024-01-15T02:31:40;30.33;;;13.45;;
25988;SDS011;13778;48.236;9.894;2024-01-15T02:34:31;28.17;;;12.00;;
25988;SDS011;13778;48.236;9.894;2024-01-15T02:37:21;23.67;;;11.50;;
25988;SDS011;13778;48.236;9.894;2024-01-15T02:40:13;27.58;;;12.80;;
25988;SDS011;13778;48.236;9.894;2024-01-15T02:43:04;25.40;;;11.77;;
25988;SDS011;13778;48.236;9.894;2024-01-15T02:45:54;26.50;;;12.85;;
25988;SDS011;13778;48.236;9.894;2024-01-15T02:48:45;21.42;;;11.10;;
25988;SDS011;13778;48.236;9.894;2024-01-15T02:51:36;25.70;;;11.23;;
25988;SDS011;13778;48.236;9.894;2024-01-15T02:54:26;26.83;;;10.98;;
25988;SDS011;13778;48.236;9.894;2024-01-15T02:57:18;24.92;;;12.18;;
25988;SDS011;13778;48.236;9.894;2024-01-15T03:00:09;27.00;;;12.13;;
25988;SDS011;13778;48.236;9.894;2024-01-15T03:02:59;24.43;;;11.07;;
25988;SDS011;13778;48.236;9.894;2024-01-15T03:05:50;20.38;;;10.18;;
25988;SDS011;13778;48.236;9.894;2024-01-15T03:08:40;26.10;;;11.75;;
25988;SDS011;13778;48.236;9.894;2024-01-15T03:11:36;24.73;;;11.20;;
25988;SDS011;13778;48.236;9.894;2024-01-15T03:14:28;22.33;;;11.00;;
25988;SDS011;13778;48.236;9.894;2024-01-15T03:17:18;21.90;;;11.23;;
25988;SDS011;13778;48.236;9.894;2024-01-15T03:20:09;20.08;;;9.77;;
25988;SDS011;13778;48.236;9.894;2024-01-15T03:22:59;19.17;;;10.25;;
25988;SDS011;13778;48.236;9.894;2024-01-15T03:25:50;23.92;;;10.60;;
25988;SDS011;13778;48.236;9.894;2024-01-15T03:28:40;19.55;;;9.80;;
25988;SDS011;13778;48.236;9.894;2024-01-15T03:31:32;21.83;;;11.30;;
25988;SDS011;13778;48.236;9.894;2024-01-15T03:34:23;22.85;;;10.35;;
25988;SDS011;13778;48.236;9.894;2024-01-15T03:37:13;23.50;;;10.63;;
25988;SDS011;13778;48.236;9.894;2024-01-15T03:40:04;23.10;;;9.53;;
25988;SDS011;13778;48.236;9.894;2024-01-15T03:42:55;22.98;;;10.18;;
25988;SDS011;13778;48.236;9.894;2024-01-15T03:45:45;17.95;;;8.43;;
25988;SDS011;13778;48.236;9.894;2024-01-15T03:48:37;15.70;;;7.13;;
25988;SDS011;13778;48.236;9.894;2024-01-15T03:54:17;16.63;;;7.68;;
25988;SDS011;13778;48.236;9.894;2024-01-15T03:57:08;17.02;;;8.02;;
25988;SDS011;13778;48.236;9.894;2024-01-15T03:59:58;16.80;;;5.95;;
25988;SDS011;13778;48.236;9.894;2024-01-15T04:02:49;15.57;;;7.30;;
25988;SDS011;13778;48.236;9.894;2024-01-15T04:05:40;10.02;;;5.45;;
25988;SDS011;13778;48.236;9.894;2024-01-15T04:08:31;15.82;;;7.00;;
25988;SDS011;13778;48.236;9.894;2024-01-15T04:11:22;17.77;;;7.07;;
25988;SDS011;13778;48.236;9.894;2024-01-15T04:14:12;16.17;;;6.93;;
25988;SDS011;13778;48.236;9.894;2024-01-15T04:17:02;17.70;;;8.05;;
25988;SDS011;13778;48.236;9.894;2024-01-15T04:19:53;20.05;;;8.23;;
25988;SDS011;13778;48.236;9.894;2024-01-15T04:22:45;19.00;;;7.55;;
25988;SDS011;13778;48.236;9.894;2024-01-15T04:25:36;19.27;;;8.75;;
25988;SDS011;13778;48.236;9.894;2024-01-15T04:28:26;20.20;;;9.55;;
25988;SDS011;13778;48.236;9.894;2024-01-15T04:31:20;17.90;;;8.38;;
25988;SDS011;13778;48.236;9.894;2024-01-15T04:34:10;16.67;;;8.20;;
25988;SDS011;13778;48.236;9.894;2024-01-15T04:37:01;17.65;;;8.43;;
25988;SDS011;13778;48.236;9.894;2024-01-15T04:39:53;18.15;;;8.10;;
25988;SDS011;13778;48.236;9.894;2024-01-15T04:42:44;17.45;;;8.70;;
25988;SDS011;13778;48.236;9.894;2024-01-15T04:45:35;19.30;;;8.93;;
25988;SDS011;13778;48.236;9.894;2024-01-15T04:48:25;15.05;;;7.18;;
25988;SDS011;13778;48.236;9.894;2024-01-15T04:51:15;19.17;;;9.32;;
25988;SDS011;13778;48.236;9.894;2024-01-15T04:54:06;15.23;;;8.18;;
25988;SDS011;13778;48.236;9.894;2024-01-15T04:56:58;19.13;;;8.95;;
25988;SDS011;13778;48.236;9.894;2024-01-15T04:59:48;16.98;;;8.60;;
25988;SDS011;13778;48.236;9.894;2024-01-15T05:02:39;17.55;;;9.10;;
25988;SDS011;13778;48.236;9.894;2024-01-15T05:05:29;19.38;;;9.07;;
25988;SDS011;13778;48.236;9.894;2024-01-15T05:08:20;14.55;;;7.47;;
25988;SDS011;13778;48.236;9.894;2024-01-15T05:11:11;15.88;;;7.38;;
25988;SDS011;13778;48.236;9.894;2024-01-15T05:14:02;15.93;;;7.55;;
25988;SDS011;13778;48.236;9.894;2024-01-15T05:16:53;14.82;;;6.97;;
25988;SDS011;13778;48.236;9.894;2024-01-15T05:19:43;17.55;;;7.40;;
25988;SDS011;13778;48.236;9.894;2024-01-15T05:22:33;14.65;;;7.35;;
25988;SDS011;13778;48.236;9.894;2024-01-15T05:25:24;15.52;;;7.50;;
25988;SDS011;13778;48.236;9.894;2024-01-15T05:28:14;16.98;;;7.43;;
25988;SDS011;13778;48.236;9.894;2024-01-15T05:31:06;16.48;;;7.45;;
25988;SDS011;13778;48.236;9.894;2024-01-15T05:36:47;17.40;;;8.32;;
25988;SDS011;13778;48.236;9.894;2024-01-15T05:39:37;15.95;;;7.97;;
25988;SDS011;13778;48.236;9.894;2024-01-15T05:42:28;14.38;;;6.97;;
25988;SDS011;13778;48.236;9.894;2024-01-15T05:45:19;13.43;;;7.57;;
25988;SDS011;13778;48.236;9.894;2024-01-15T05:48:11;20.42;;;8.73;;
25988;SDS011;13778;48.236;9.894;2024-01-15T05:51:02;17.67;;;8.05;;
25988;SDS011;13778;48.236;9.894;2024-01-15T05:53:53;17.23;;;7.95;;
25988;SDS011;13778;48.236;9.894;2024-01-15T05:56:43;15.52;;;7.30;;
25988;SDS011;13778;48.236;9.894;2024-01-15T05:59:34;17.70;;;8.85;;
25988;SDS011;13778;48.236;9.894;2024-01-15T06:02:25;17.20;;;8.57;;
25988;SDS011;13778;48.236;9.894;2024-01-15T06:05:17;16.52;;;7.85;;
25988;SDS011;13778;48.236;9.894;2024-01-15T06:10:57;16.60;;;7.80;;
25988;SDS011;13778;48.236;9.894;2024-01-15T06:13:48;17.88;;;8.10;;
25988;SDS011;13778;48.236;9.894;2024-01-15T06:16:38;18.73;;;9.10;;
25988;SDS011;13778;48.236;9.894;2024-01-15T06:19:29;17.20;;;8.85;;
25988;SDS011;13778;48.236;9.894;2024-01-15T06:22:21;19.00;;;10.57;;
25988;SDS011;13778;48.236;9.894;2024-01-15T06:25:11;17.25;;;9.52;;
25988;SDS011;13778;48.236;9.894;2024-01-15T06:28:02;21.88;;;10.00;;
25988;SDS011;13778;48.236;9.894;2024-01-15T06:33:44;17.65;;;10.23;;
25988;SDS011;13778;48.236;9.894;2024-01-15T06:36:36;29.25;;;13.00;;
25988;SDS011;13778;48.236;9.894;2024-01-15T06:39:28;41.55;;;18.13;;
25988;SDS011;13778;48.236;9.894;2024-01-15T06:42:18;30.60;;;14.60;;
25988;SDS011;13778;48.236;9.894;2024-01-15T06:45:11;36.05;;;18.25;;
25988;SDS011;13778;48.236;9.894;2024-01-15T06:48:01;25.30;;;14.07;;
25988;SDS011;13778;48.236;9.894;2024-01-15T06:50:52;20.88;;;11.10;;
25988;SDS011;13778;48.236;9.894;2024-01-15T06:53:42;22.05;;;10.75;;
25988;SDS011;13778;48.236;9.894;2024-01-15T06:56:35;21.40;;;10.98;;
25988;SDS011;13778;48.236;9.894;2024-01-15T06:59:25;16.30;;;8.88;;
25988;SDS011;13778;48.236;9.894;2024-01-15T07:02:16;21.23;;;10.63;;
25988;SDS011;13778;48.236;9.894;2024-01-15T07:05:07;17.05;;;9.23;;
25988;SDS011;13778;48.236;9.894;2024-01-15T07:07:57;19.25;;;9.00;;
25988;SDS011;13778;48.236;9.894;2024-01-15T07:10:48;18.73;;;9.90;;
25988;SDS011;13778;48.236;9.894;2024-01-15T07:13:39;18.85;;;8.60;;
25988;SDS011;13778;48.236;9.894;2024-01-15T07:16:30;17.15;;;9.27;;
25988;SDS011;13778;48.236;9.894;2024-01-15T07:19:21;15.38;;;8.20;;
25988;SDS011;13778;48.236;9.894;2024-01-15T07:22:11;21.08;;;8.63;;
25988;SDS011;13778;48.236;9.894;2024-01-15T07:25:02;17.40;;;8.20;;
25988;SDS011;13778;48.236;9.894;2024-01-15T07:27:53;16.75;;;8.00;;
25988;SDS011;13778;48.236;9.894;2024-01-15T07:30:45;18.85;;;8.07;;
25988;SDS011;13778;48.236;9.894;2024-01-15T07:33:36;15.85;;;7.82;;
25988;SDS011;13778;48.236;9.894;2024-01-15T07:36:26;14.20;;;7.57;;
25988;SDS011;13778;48.236;9.894;2024-01-15T07:39:17;14.65;;;8.68;;
25988;SDS011;13778;48.236;9.894;2024-01-15T07:42:07;19.15;;;8.80;;
25988;SDS011;13778;48.236;9.894;2024-01-15T07:44:58;16.02;;;7.40;;
25988;SDS011;13778;48.236;9.894;2024-01-15T07:47:50;16.10;;;8.80;;
25988;SDS011;13778;48.236;9.894;2024-01-15T07:50:40;16.63;;;7.80;;
25988;SDS011;13778;48.236;9.894;2024-01-15T07:53:32;12.85;;;6.57;;
25988;SDS011;13778;48.236;9.894;2024-01-15T07:56:22;18.90;;;7.78;;
25988;SDS011;13778;48.236;9.894;2024-01-15T07:59:12;13.15;;;6.85;;
25988;SDS011;13778;48.236;9.894;2024-01-15T08:02:03;15.05;;;7.93;;
25988;SDS011;13778;48.236;9.894;2024-01-15T08:04:55;14.23;;;7.43;;
25988;SDS011;13778;48.236;9.894;2024-01-15T08:07:45;15.88;;;7.05;;
25988;SDS011;13778;48.236;9.894;2024-01-15T08:10:36;13.57;;;7.38;;
25988;SDS011;13778;48.236;9.894;2024-01-15T08:13:26;10.02;;;6.28;;
25988;SDS011;13778;48.236;9.894;2024-01-15T08:16:17;10.18;;;5.75;;
25988;SDS011;13778;48.236;9.894;2024-01-15T08:19:07;10.20;;;6.10;;
25988;SDS011;13778;48.236;9.894;2024-01-15T08:21:59;11.63;;;6.25;;
25988;SDS011;13778;48.236;9.894;2024-01-15T08:24:50;12.40;;;6.07;;
25988;SDS011;13778;48.236;9.894;2024-01-15T08:27:41;10.60;;;6.18;;
25988;SDS011;13778;48.236;9.894;2024-01-15T08:30:31;10.57;;;6.15;;
25988;SDS011;13778;48.236;9.894;2024-01-15T08:33:22;10.77;;;5.55;;
25988;SDS011;13778;48.236;9.894;2024-01-15T08:36:12;12.18;;;6.28;;
25988;SDS011;13778;48.236;9.894;2024-01-15T08:39:04;11.18;;;5.28;;
25988;SDS011;13778;48.236;9.894;2024-01-15T08:41:55;12.15;;;5.93;;
25988;SDS011;13778;48.236;9.894;2024-01-15T08:44:46;12.60;;;6.00;;
25988;SDS011;13778;48.236;9.894;2024-01-15T08:47:36;11.18;;;5.03;;
25988;SDS011;13778;48.236;9.894;2024-01-15T08:50:27;10.18;;;5.38;;
25988;SDS011;13778;48.236;9.894;2024-01-15T08:53:17;10.52;;;4.63;;
25988;SDS011;13778;48.236;9.894;2024-01-15T08:56:09;7.82;;;4.22;;
25988;SDS011;13778;48.236;9.894;2024-01-15T08:59:00;9.88;;;4.55;;
25988;SDS011;13778;48.236;9.894;2024-01-15T09:01:50;9.18;;;4.57;;
25988;SDS011;13778;48.236;9.894;2024-01-15T09:04:41;7.38;;;4.68;;
25988;SDS011;13778;48.236;9.894;2024-01-15T09:07:31;7.68;;;4.45;;
25988;SDS011;13778;48.236;9.894;2024-01-15T09:10:22;7.40;;;4.47;;
25988;SDS011;13778;48.236;9.894;2024-01-15T09:13:14;6.68;;;4.25;;
25988;SDS011;13778;48.236;9.894;2024-01-15T09:16:06;9.00;;;4.57;;
25988;SDS011;13778;48.236;9.894;2024-01-15T09:18:56;7.35;;;3.85;;
25988;SDS011;13778;48.236;9.894;2024-01-15T09:21:46;7.13;;;3.88;;
25988;SDS011;13778;48.236;9.894;2024-01-15T09:24:37;5.53;;;3.20;;
25988;SDS011;13778;48.236;9.894;2024-01-15T09:27:30;11.88;;;7.10;;
25988;SDS011;13778;48.236;9.894;2024-01-15T09:30:23;4.25;;;3.05;;
25988;SDS011;13778;48.236;9.894;2024-01-15T09:33:13;6.53;;;3.92;;
25988;SDS011;13778;48.236;9.894;2024-01-15T09:36:04;4.80;;;3.45;;
25988;SDS011;13778;48.236;9.894;2024-01-15T09:38:55;7.28;;;3.80;;
25988;SDS011;13778;48.236;9.894;2024-01-15T09:41:45;5.50;;;2.50;;
25988;SDS011;13778;48.236;9.894;2024-01-15T09:44:37;6.13;;;2.60;;
25988;SDS011;13778;48.236;9.894;2024-01-15T09:47:28;3.17;;;2.40;;
25988;SDS011;13778;48.236;9.894;2024-01-15T09:50:19;3.63;;;2.60;;
25988;SDS011;13778;48.236;9.894;2024-01-15T09:53:10;4.77;;;2.43;;
25988;SDS011;13778;48.236;9.894;2024-01-15T09:56:01;5.35;;;2.30;;
25988;SDS011;13778;48.236;9.894;2024-01-15T09:58:52;4.75;;;2.50;;
25988;SDS011;13778;48.236;9.894;2024-01-15T10:01:43;4.18;;;2.38;;
25988;SDS011;13778;48.236;9.894;2024-01-15T10:04:35;5.45;;;2.33;;
25988;SDS011;13778;48.236;9.894;2024-01-15T10:10:17;4.53;;;2.40;;
25988;SDS011;13778;48.236;9.894;2024-01-15T10:13:07;2.83;;;2.05;;
25988;SDS011;13778;48.236;9.894;2024-01-15T10:15:57;5.93;;;2.85;;
25988;SDS011;13778;48.236;9.894;2024-01-15T10:18:49;3.05;;;2.42;;
25988;SDS011;13778;48.236;9.894;2024-01-15T10:21:40;6.93;;;2.58;;
25988;SDS011;13778;48.236;9.894;2024-01-15T10:24:31;2.53;;;2.10;;
25988;SDS011;13778;48.236;9.894;2024-01-15T10:27:22;3.35;;;2.10;;
25988;SDS011;13778;48.236;9.894;2024-01-15T10:30:13;3.65;;;2.40;;
25988;SDS011;13778;48.236;9.894;2024-01-15T10:33:04;3.78;;;2.45;;
25988;SDS011;13778;48.236;9.894;2024-01-15T10:35:54;2.33;;;1.85;;
25988;SDS011;13778;48.236;9.894;2024-01-15T10:38:46;3.42;;;2.10;;
25988;SDS011;13778;48.236;9.894;2024-01-15T10:41:37;3.95;;;2.17;;
25988;SDS011;13778;48.236;9.894;2024-01-15T10:44:28;2.50;;;2.10;;
25988;SDS011;13778;48.236;9.894;2024-01-15T10:47:19;4.88;;;1.80;;
25988;SDS011;13778;48.236;9.894;2024-01-15T10:50:10;2.70;;;2.23;;
25988;SDS011;13778;48.236;9.894;2024-01-15T10:53:00;7.10;;;2.80;;
25988;SDS011;13778;48.236;9.894;2024-01-15T10:55:53;7.28;;;3.88;;
25988;SDS011;13778;48.236;9.894;2024-01-15T10:58:43;6.50;;;3.78;;
25988;SDS011;13778;48.236;9.894;2024-01-15T11:01:34;6.40;;;3.90;;
25988;SDS011;13778;48.236;9.894;2024-01-15T11:04:24;5.70;;;3.38;;
25988;SDS011;13778;48.236;9.894;2024-01-15T11:07:17;7.45;;;4.55;;
25988;SDS011;13778;48.236;9.894;2024-01-15T11:13:20;6.85;;;4.63;;
25988;SDS011;13778;48.236;9.894;2024-01-15T11:16:11;10.27;;;4.40;;
25988;SDS011;13778;48.236;9.894;2024-01-15T11:19:02;6.47;;;3.50;;
25988;SDS011;13778;48.236;9.894;2024-01-15T11:21:52;7.22;;;3.40;;
25988;SDS011;13778;48.236;9.894;2024-01-15T11:24:43;6.07;;;3.95;;
25988;SDS011;13778;48.236;9.894;2024-01-15T11:27:39;6.65;;;3.92;;
25988;SDS011;13778;48.236;9.894;2024-01-15T11:30:31;6.85;;;4.43;;
25988;SDS011;13778;48.236;9.894;2024-01-15T11:33:32;5.35;;;3.63;;
25988;SDS011;13778;48.236;9.894;2024-01-15T11:39:40;5.35;;;3.42;;
25988;SDS011;13778;48.236;9.894;2024-01-15T11:42:32;5.35;;;3.92;;
25988;SDS011;13778;48.236;9.894;2024-01-15T11:45:22;6.82;;;3.80;;
25988;SDS011;13778;48.236;9.894;2024-01-15T11:48:14;8.55;;;4.78;;
25988;SDS011;13778;48.236;9.894;2024-01-15T11:51:05;7.13;;;4.00;;
25988;SDS011;13778;48.236;9.894;2024-01-15T11:53:56;11.10;;;3.75;;
25988;SDS011;13778;48.236;9.894;2024-01-15T11:56:52;4.43;;;3.25;;
25988;SDS011;13778;48.236;9.894;2024-01-15T11:59:43;6.80;;;3.90;;
25988;SDS011;13778;48.236;9.894;2024-01-15T12:02:34;9.63;;;3.50;;
25988;SDS011;13778;48.236;9.894;2024-01-15T12:05:25;8.37;;;5.10;;
25988;SDS011;13778;48.236;9.894;2024-01-15T12:11:06;11.20;;;5.25;;
25988;SDS011;13778;48.236;9.894;2024-01-15T12:14:00;9.98;;;5.57;;
25988;SDS011;13778;48.236;9.894;2024-01-15T12:16:50;10.13;;;5.38;;
25988;SDS011;13778;48.236;9.894;2024-01-15T12:19:40;9.18;;;5.22;;
25988;SDS011;13778;48.236;9.894;2024-01-15T12:22:32;8.88;;;5.35;;
25988;SDS011;13778;48.236;9.894;2024-01-15T12:28:13;12.77;;;6.32;;
25988;SDS011;13778;48.236;9.894;2024-01-15T12:31:05;10.50;;;5.78;;
25988;SDS011;13778;48.236;9.894;2024-01-15T12:33:55;11.15;;;6.50;;
25988;SDS011;13778;48.236;9.894;2024-01-15T12:36:46;10.55;;;5.53;;
25988;SDS011;13778;48.236;9.894;2024-01-15T12:39:38;11.88;;;6.93;;
25988;SDS011;13778;48.236;9.894;2024-01-15T12:45:18;15.07;;;6.57;;
25988;SDS011;13778;48.236;9.894;2024-01-15T12:48:09;14.20;;;6.68;;
25988;SDS011;13778;48.236;9.894;2024-01-15T12:51:00;12.55;;;6.20;;
25988;SDS011;13778;48.236;9.894;2024-01-15T12:53:50;14.63;;;7.18;;
25988;SDS011;13778;48.236;9.894;2024-01-15T12:56:42;12.77;;;6.70;;
25988;SDS011;13778;48.236;9.894;2024-01-15T12:59:32;12.73;;;6.70;;
25988;SDS011;13778;48.236;9.894;2024-01-15T13:02:23;20.30;;;9.88;;
25988;SDS011;13778;48.236;9.894;2024-01-15T13:05:13;10.27;;;6.38;;
25988;SDS011;13778;48.236;9.894;2024-01-15T13:08:04;17.33;;;13.27;;
25988;SDS011;13778;48.236;9.894;2024-01-15T13:10:55;10.93;;;6.67;;
25988;SDS011;13778;48.236;9.894;2024-01-15T13:16:38;12.23;;;6.32;;
25988;SDS011;13778;48.236;9.894;2024-01-15T13:19:28;10.68;;;6.13;;
25988;SDS011;13778;48.236;9.894;2024-01-15T13:22:18;13.25;;;6.18;;
25988;SDS011;13778;48.236;9.894;2024-01-15T13:25:09;10.23;;;6.00;;
25988;SDS011;13778;48.236;9.894;2024-01-15T13:28:00;12.38;;;7.22;;
25988;SDS011;13778;48.236;9.894;2024-01-15T13:30:51;13.98;;;7.10;;
25988;SDS011;13778;48.236;9.894;2024-01-15T13:33:43;14.70;;;7.25;;
25988;SDS011;13778;48.236;9.894;2024-01-15T13:39:23;11.90;;;6.07;;
25988;SDS011;13778;48.236;9.894;2024-01-15T13:42:14;13.75;;;7.25;;
25988;SDS011;13778;48.236;9.894;2024-01-15T13:45:05;10.23;;;6.63;;
25988;SDS011;13778;48.236;9.894;2024-01-15T13:50:47;13.88;;;6.30;;
25988;SDS011;13778;48.236;9.894;2024-01-15T13:53:40;10.57;;;5.82;;
25988;SDS011;13778;48.236;9.894;2024-01-15T13:56:30;9.68;;;5.35;;
25988;SDS011;13778;48.236;9.894;2024-01-15T13:59:21;9.07;;;4.70;;
25988;SDS011;13778;48.236;9.894;2024-01-15T14:02:12;11.73;;;5.07;;
25988;SDS011;13778;48.236;9.894;2024-01-15T14:05:03;6.50;;;3.65;;
25988;SDS011;13778;48.236;9.894;2024-01-15T14:07:56;8.20;;;3.20;;
25988;SDS011;13778;48.236;9.894;2024-01-15T14:10:48;7.18;;;4.00;;
25988;SDS011;13778;48.236;9.894;2024-01-15T14:13:38;7.38;;;4.47;;
25988;SDS011;13778;48.236;9.894;2024-01-15T14:16:29;4.93;;;2.95;;
25988;SDS011;13778;48.236;9.894;2024-01-15T14:19:19;6.22;;;3.88;;
25988;SDS011;13778;48.236;9.894;2024-01-15T14:22:10;8.35;;;4.13;;
25988;SDS011;13778;48.236;9.894;2024-01-15T14:25:02;7.22;;;3.80;;
25988;SDS011;13778;48.236;9.894;2024-01-15T14:27:54;9.07;;;3.70;;
25988;SDS011;13778;48.236;9.894;2024-01-15T14:30:45;5.70;;;3.42;;
25988;SDS011;13778;48.236;9.894;2024-01-15T14:33:36;6.30;;;3.75;;
25988;SDS011;13778;48.236;9.894;2024-01-15T14:36:26;4.43;;;2.75;;
25988;SDS011;13778;48.236;9.894;2024-01-15T14:39:16;10.40;;;5.85;;
25988;SDS011;13778;48.236;9.894;2024-01-15T14:42:09;6.27;;;3.43;;
25988;SDS011;13778;48.236;9.894;2024-01-15T14:45:00;2.92;;;2.38;;
25988;SDS011;13778;48.236;9.894;2024-01-15T14:47:51;5.88;;;3.92;;
25988;SDS011;13778;48.236;9.894;2024-01-15T14:50:41;5.78;;;3.25;;
25988;SDS011;13778;48.236;9.894;2024-01-15T14:53:32;8.25;;;3.05;;
25988;SDS011;13778;48.236;9.894;2024-01-15T14:56:23;7.43;;;3.70;;
25988;SDS011;13778;48.236;9.894;2024-01-15T14:59:15;6.78;;;3.33;;
25988;SDS011;13778;48.236;9.894;2024-01-15T15:02:06;5.20;;;3.15;;
25988;SDS011;13778;48.236;9.894;2024-01-15T15:04:57;3.58;;;2.65;;
25988;SDS011;13778;48.236;9.894;2024-01-15T15:07:47;4.20;;;3.17;;
25988;SDS011;13778;48.236;9.894;2024-01-15T15:10:38;6.28;;;3.67;;
25988;SDS011;13778;48.236;9.894;2024-01-15T15:13:29;8.23;;;4.20;;
25988;SDS011;13778;48.236;9.894;2024-01-15T15:16:21;4.40;;;2.38;;
25988;SDS011;13778;48.236;9.894;2024-01-15T15:19:11;10.43;;;4.82;;
25988;SDS011;13778;48.236;9.894;2024-01-15T15:22:02;3.80;;;3.17;;
25988;SDS011;13778;48.236;9.894;2024-01-15T15:24:52;5.93;;;3.58;;
25988;SDS011;13778;48.236;9.894;2024-01-15T15:27:43;5.30;;;3.40;;
25988;SDS011;13778;48.236;9.894;2024-01-15T15:30:34;6.38;;;3.05;;
25988;SDS011;13778;48.236;9.894;2024-01-15T15:33:26;8.75;;;4.72;;
25988;SDS011;13778;48.236;9.894;2024-01-15T15:39:07;8.70;;;3.55;;
25988;SDS011;13778;48.236;9.894;2024-01-15T15:41:58;5.40;;;2.97;;
25988;SDS011;13778;48.236;9.894;2024-01-15T15:44:49;10.40;;;4.25;;
25988;SDS011;13778;48.236;9.894;2024-01-15T15:47:40;5.65;;;3.13;;
25988;SDS011;13778;48.236;9.894;2024-01-15T15:50:32;4.28;;;3.15;;
25988;SDS011;13778;48.236;9.894;2024-01-15T15:53:22;10.98;;;6.20;;
25988;SDS011;13778;48.236;9.894;2024-01-15T15:56:13;11.25;;;5.07;;
25988;SDS011;13778;48.236;9.894;2024-01-15T15:59:04;7.15;;;3.75;;
25988;SDS011;13778;48.236;9.894;2024-01-15T16:01:55;8.05;;;3.67;;
25988;SDS011;13778;48.236;9.894;2024-01-15T16:04:46;9.02;;;4.43;;
25988;SDS011;13778;48.236;9.894;2024-01-15T16:07:38;8.35;;;3.75;;
25988;SDS011;13778;48.236;9.894;2024-01-15T16:10:28;6.40;;;3.58;;
25988;SDS011;13778;48.236;9.894;2024-01-15T16:13:19;6.45;;;4.28;;
25988;SDS011;13778;48.236;9.894;2024-01-15T16:16:09;7.63;;;3.92;;
25988;SDS011;13778;48.236;9.894;2024-01-15T16:19:00;6.00;;;3.47;;
25988;SDS011;13778;48.236;9.894;2024-01-15T16:21:50;5.50;;;3.70;;
25988;SDS011;13778;48.236;9.894;2024-01-15T16:24:42;8.70;;;4.18;;
25988;SDS011;13778;48.236;9.894;2024-01-15T16:30:23;4.90;;;2.80;;
25988;SDS011;13778;48.236;9.894;2024-01-15T16:33:13;6.70;;;4.15;;
25988;SDS011;13778;48.236;9.894;2024-01-15T16:36:04;8.45;;;5.75;;
25988;SDS011;13778;48.236;9.894;2024-01-15T16:38:55;8.68;;;3.92;;
25988;SDS011;13778;48.236;9.894;2024-01-15T16:41:46;5.43;;;2.78;;
25988;SDS011;13778;48.236;9.894;2024-01-15T16:44:37;4.57;;;2.95;;
25988;SDS011;13778;48.236;9.894;2024-01-15T16:47:28;8.38;;;3.83;;
25988;SDS011;13778;48.236;9.894;2024-01-15T16:50:18;8.40;;;5.10;;
25988;SDS011;13778;48.236;9.894;2024-01-15T16:53:09;7.57;;;3.50;;
25988;SDS011;13778;48.236;9.894;2024-01-15T16:55:59;5.57;;;3.45;;
25988;SDS011;13778;48.236;9.894;2024-01-15T16:58:51;4.57;;;2.67;;
25988;SDS011;13778;48.236;9.894;2024-01-15T17:01:42;7.07;;;4.45;;
25988;SDS011;13778;48.236;9.894;2024-01-15T17:04:32;5.60;;;3.47;;
25988;SDS011;13778;48.236;9.894;2024-01-15T17:07:23;7.10;;;4.28;;
25988;SDS011;13778;48.236;9.894;2024-01-15T17:10:13;6.28;;;4.28;;
25988;SDS011;13778;48.236;9.894;2024-01-15T17:13:05;6.33;;;3.37;;
25988;SDS011;13778;48.236;9.894;2024-01-15T17:15:57;6.85;;;4.50;;
25988;SDS011;13778;48.236;9.894;2024-01-15T17:18:48;7.05;;;4.28;;
25988;SDS011;13778;48.236;9.894;2024-01-15T17:21:39;11.07;;;4.85;;
25988;SDS011;13778;48.236;9.894;2024-01-15T17:24:29;5.40;;;3.88;;
25988;SDS011;13778;48.236;9.894;2024-01-15T17:27:20;7.97;;;4.63;;
25988;SDS011;13778;48.236;9.894;2024-01-15T17:30:10;5.78;;;4.18;;
25988;SDS011;13778;48.236;9.894;2024-01-15T17:33:02;9.15;;;4.10;;
25988;SDS011;13778;48.236;9.894;2024-01-15T17:35:54;7.55;;;4.45;;
25988;SDS011;13778;48.236;9.894;2024-01-15T17:41:35;12.38;;;5.32;;